Time;durP1;ratioP1;P1;durP2;ratioP2;P2;SDS_P1;SDS_P2;PMS_P1;PMS_P2;Temp;Humidity;BMP_temperature;BMP_pressure;BME280_temperature;BME280_humidity;BME280_pressure;Samples;Min_cycle;Max_cycle;Signal;HPM_P1;HPM_P2
2023/07/15 00:00:04;;;;;;;;;;;;;;;25.08;58.61;98321.72;5091897;28;20314;-46
2023/07/15 00:02:30;;;;;;;;;;;;;;;24.98;58.58;98305.06;5092253;28;19951;-46
2023/07/15 00:04:55;;;;;;;;;;;;;;;24.87;59.16;98299.91;5091927;28;20454;-46
2023/07/15 00:07:20;;;;;;;;;;;;;;;24.86;59.29;98302.91;5091874;28;20387;-46
2023/07/15 00:09:46;;;;;;;;;;;;;;;24.88;59.15;98298.03;5091863;28;19919;-46
2023/07/15 00:12:11;;;;;;;;;;;;;;;24.90;59.29;98304.66;5090587;28;19935;-46
2023/07/15 00:14:38;;;;;;;;;;;;;;;24.89;59.48;98297.72;5090567;28;20400;-46
2023/07/15 00:17:03;;;;;;;;;;;;;;;24.88;59.47;98303.41;5091753;28;19924;-46
2023/07/15 00:19:29;;;;;;;;;;;;;;;24.80;59.53;98286.13;5091766;28;20270;-46
2023/07/15 00:21:55;;;;;;;;;;;;;;;24.77;60.71;98289.44;5091791;28;20435;-46
2023/07/15 00:24:20;;;;;;;;;;;;;;;24.82;60.20;98289.28;5090430;28;19950;-46
2023/07/15 00:26:47;;;;;;;;;;;;;;;24.86;59.65;98292.16;5093021;28;19927;-46
2023/07/15 00:29:13;;;;;;;;;;;;;;;24.77;60.04;98286.75;5095608;28;19911;-46
2023/07/15 00:31:38;;;;;;;;;;;;;;;24.80;60.01;98280.75;5094114;28;19919;-46
2023/07/15 00:34:04;;;;;;;;;;;;;;;24.86;59.56;98294.84;5094267;28;19915;-46
2023/07/15 00:36:31;;;;;;;;;;;;;;;24.80;59.58;98291.47;5094885;28;19976;-46
2023/07/15 00:38:56;;;;;;;;;;;;;;;24.72;59.48;98297.56;5094131;28;19919;-46
2023/07/15 00:41:24;;;;;;;;;;;;;;;24.75;59.24;98293.47;5095069;28;20007;-46
2023/07/15 00:43:53;;;;;;;;;;;;;;;24.87;59.04;98289.19;5095162;28;19919;-46
2023/07/15 00:46:19;;;;;;;;;;;;;;;24.92;58.51;98299.78;5095329;28;19912;-46
2023/07/15 00:49:00;;;;;;;;;;;;;;;24.87;58.79;98297.25;5095081;28;20313;-46
2023/07/15 00:51:26;;;;;;;;;;;;;;;24.92;58.12;98293.63;5094946;28;19912;-46
2023/07/15 00:53:53;;;;;;;;;;;;;;;24.94;57.78;98288.75;5094943;28;19919;-46
2023/07/15 00:56:19;;;;;;;;;;;;;;;24.88;58.27;98296.13;5094796;28;19919;-46
2023/07/15 00:58:45;;;;;;;;;;;;;;;24.85;58.05;98288.69;5093900;28;19912;-46
2023/07/15 01:01:11;;;;;;;;;;;;;;;24.84;58.09;98291.69;5095030;28;19922;-46
2023/07/15 01:03:37;;;;;;;;;;;;;;;24.87;57.83;98289.19;5093445;28;20304;-46
2023/07/15 01:06:03;;;;;;;;;;;;;;;24.91;57.36;98282.09;5093697;28;19962;-46
2023/07/15 01:08:28;;;;;;;;;;;;;;;25.00;57.14;98292.13;5094661;28;20340;-46
2023/07/15 01:10:55;;;;;;;;;;;;;;;25.07;56.94;98276.34;5094486;28;20010;-46
2023/07/15 01:13:20;;;;;;;;;;;;;;;24.98;56.92;98278.19;5094595;28;19912;-46
2023/07/15 01:15:46;;;;;;;;;;;;;;;24.87;57.09;98286.50;5093490;28;19916;-46
2023/07/15 01:18:12;;;;;;;;;;;;;;;24.92;57.21;98283.69;5094377;28;20028;-46
2023/07/15 01:20:37;;;;;;;;;;;;;;;24.97;57.23;98268.53;5093430;28;20015;-46
2023/07/15 01:23:03;;;;;;;;;;;;;;;25.00;57.10;98271.41;5094342;28;19912;-46
2023/07/15 01:25:29;;;;;;;;;;;;;;;25.06;57.22;98274.78;5093313;28;19919;-46
2023/07/15 01:27:54;;;;;;;;;;;;;;;25.10;56.92;98267.69;5093333;28;19919;-46
2023/07/15 01:30:19;;;;;;;;;;;;;;;25.05;57.66;98278.56;5093179;28;20356;-46
2023/07/15 01:32:45;;;;;;;;;;;;;;;25.01;57.62;98254.22;5094199;28;20400;-46
2023/07/15 01:35:10;;;;;;;;;;;;;;;24.99;57.81;98260.97;5092684;28;20292;-46
2023/07/15 01:37:36;;;;;;;;;;;;;;;24.89;58.11;98253.97;5092946;28;19927;-46
2023/07/15 01:40:02;;;;;;;;;;;;;;;24.91;58.83;98244.53;5094027;28;19912;-46
2023/07/15 01:42:27;;;;;;;;;;;;;;;24.99;58.20;98236.81;5092686;28;19974;-46
2023/07/15 01:44:54;;;;;;;;;;;;;;;24.86;58.58;98233.13;5093888;28;20389;-46
2023/07/15 01:47:20;;;;;;;;;;;;;;;24.71;59.30;98237.75;5093945;28;19957;-46
2023/07/15 01:49:45;;;;;;;;;;;;;;;24.61;60.06;98254.09;5093762;28;19912;-46
2023/07/15 01:52:11;;;;;;;;;;;;;;;24.51;60.31;98248.94;5093778;28;20010;-45
2023/07/15 01:54:36;;;;;;;;;;;;;;;24.43;60.80;98252.31;5092752;28;19919;-46
2023/07/15 01:57:01;;;;;;;;;;;;;;;24.33;60.92;98239.94;5093761;28;19947;-46
2023/07/15 01:59:27;;;;;;;;;;;;;;;24.36;60.86;98233.16;5092428;28;19966;-46
2023/07/15 02:01:55;;;;;;;;;;;;;;;24.31;61.18;98220.66;5093908;28;19951;-46
2023/07/15 02:04:20;;;;;;;;;;;;;;;24.41;60.86;98223.13;5092579;28;19981;-46
2023/07/15 02:06:46;;;;;;;;;;;;;;;24.39;60.79;98211.91;5093478;28;20031;-46
2023/07/15 02:09:11;;;;;;;;;;;;;;;24.49;61.05;98206.28;5092515;28;20229;-45
2023/07/15 02:11:36;;;;;;;;;;;;;;;24.70;60.26;98222.72;5093271;28;19912;-46
2023/07/15 02:14:02;;;;;;;;;;;;;;;24.66;60.16;98213.69;5093428;28;20400;-46
2023/07/15 02:16:28;;;;;;;;;;;;;;;24.48;60.40;98220.00;5093285;28;20309;-46
2023/07/15 02:18:53;;;;;;;;;;;;;;;24.28;60.79;98215.88;5092251;28;19961;-46
2023/07/15 02:21:24;;;;;;;;;;;;;;;24.20;61.01;98222.75;5091914;28;20003;-46
2023/07/15 02:23:52;;;;;;;;;;;;;;;24.26;61.37;98221.53;5093282;28;20449;-46
2023/07/15 02:26:17;;;;;;;;;;;;;;;24.27;61.29;98215.09;5091814;28;19973;-46
2023/07/15 02:28:43;;;;;;;;;;;;;;;24.43;60.99;98210.19;5091922;28;20000;-46
2023/07/15 02:31:09;;;;;;;;;;;;;;;24.46;60.49;98214.94;5092974;28;19912;-46
2023/07/15 02:33:34;;;;;;;;;;;;;;;24.48;60.48;98212.75;5092944;28;19912;-46
2023/07/15 02:36:00;;;;;;;;;;;;;;;24.45;60.68;98212.59;5091467;28;19926;-46
2023/07/15 02:38:25;;;;;;;;;;;;;;;24.45;60.90;98216.06;5093022;28;19912;-46
2023/07/15 02:40:51;;;;;;;;;;;;;;;24.46;60.71;98216.84;5092848;28;20296;-46
2023/07/15 02:43:17;;;;;;;;;;;;;;;24.40;60.81;98200.06;5092862;28;19961;-46
2023/07/15 02:45:42;;;;;;;;;;;;;;;24.29;61.05;98201.41;5092795;28;19923;-45
2023/07/15 02:48:07;;;;;;;;;;;;;;;24.21;61.44;98199.44;5092812;28;19912;-46
2023/07/15 02:50:33;;;;;;;;;;;;;;;24.22;61.98;98179.56;5092513;28;19912;-46
2023/07/15 02:52:58;;;;;;;;;;;;;;;24.33;61.39;98178.25;5091712;28;19919;-46
2023/07/15 02:55:25;;;;;;;;;;;;;;;24.36;61.15;98184.88;5092622;28;19923;-46
2023/07/15 02:57:51;;;;;;;;;;;;;;;24.41;61.28;98180.19;5092672;28;19912;-46
2023/07/15 03:00:16;;;;;;;;;;;;;;;24.55;60.49;98182.84;5091538;28;19923;-46
2023/07/15 03:02:44;;;;;;;;;;;;;;;24.62;60.34;98190.47;5091458;28;20305;-46
2023/07/15 03:05:10;;;;;;;;;;;;;;;24.51;60.46;98203.34;5092510;28;19912;-46
2023/07/15 03:07:35;;;;;;;;;;;;;;;24.36;60.74;98190.25;5091465;28;20417;-46
2023/07/15 03:10:01;;;;;;;;;;;;;;;24.12;61.39;98185.94;5091077;28;19919;-46
2023/07/15 03:12:28;;;;;;;;;;;;;;;23.97;62.00;98187.06;5091125;28;19919;-46
2023/07/15 03:14:54;;;;;;;;;;;;;;;23.95;62.27;98185.78;5092334;28;19916;-45
2023/07/15 03:17:19;;;;;;;;;;;;;;;24.01;62.62;98185.38;5092343;28;19919;-46
2023/07/15 03:19:45;;;;;;;;;;;;;;;24.09;62.07;98184.66;5091151;28;20316;-46
2023/07/15 03:22:10;;;;;;;;;;;;;;;23.99;62.12;98184.09;5091333;28;19912;-46
2023/07/15 03:24:36;;;;;;;;;;;;;;;23.90;62.68;98192.84;5092218;28;20007;-45
2023/07/15 03:27:02;;;;;;;;;;;;;;;23.79;62.95;98188.78;5074131;28;19977;-46
2023/07/15 03:29:28;;;;;;;;;;;;;;;23.83;63.11;98197.00;5092350;28;19965;-46
2023/07/15 03:31:53;;;;;;;;;;;;;;;23.81;62.86;98186.59;5092452;28;19916;-46
2023/07/15 03:34:19;;;;;;;;;;;;;;;23.81;62.69;98183.13;5092216;28;20552;-46
2023/07/15 03:36:45;;;;;;;;;;;;;;;23.70;63.05;98177.13;5090663;28;19916;-46
2023/07/15 03:39:10;;;;;;;;;;;;;;;23.76;63.26;98167.09;5092134;28;19919;-46
2023/07/15 03:41:36;;;;;;;;;;;;;;;23.77;63.15;98172.19;5090772;28;20023;-46
2023/07/15 03:44:02;;;;;;;;;;;;;;;23.85;63.20;98163.44;5092049;28;19912;-46
2023/07/15 03:46:27;;;;;;;;;;;;;;;23.92;62.57;98160.34;5092057;28;19919;-46
2023/07/15 03:48:53;;;;;;;;;;;;;;;23.93;62.47;98178.81;5090821;28;19919;-46
2023/07/15 03:51:18;;;;;;;;;;;;;;;23.81;62.71;98170.50;5091899;28;20384;-46
2023/07/15 03:53:44;;;;;;;;;;;;;;;23.80;62.89;98166.22;5092026;28;19912;-46
2023/07/15 03:56:09;;;;;;;;;;;;;;;23.83;62.96;98187.06;5090688;28;20003;-46
2023/07/15 03:58:35;;;;;;;;;;;;;;;23.85;62.91;98174.16;5091971;28;19961;-46
2023/07/15 04:01:00;;;;;;;;;;;;;;;23.87;62.48;98177.34;5093190;28;19916;-46
2023/07/15 04:03:26;;;;;;;;;;;;;;;23.85;62.73;98176.84;5094563;28;20012;-45
2023/07/15 04:05:51;;;;;;;;;;;;;;;23.80;62.59;98171.59;5095813;28;19912;-46
2023/07/15 04:08:16;;;;;;;;;;;;;;;23.88;62.41;98170.09;5095799;28;19996;-46
2023/07/15 04:10:44;;;;;;;;;;;;;;;23.95;62.12;98181.22;5095636;28;19912;-45
2023/07/15 04:13:10;;;;;;;;;;;;;;;23.84;62.41;98155.69;5095708;28;19912;-46
2023/07/15 04:15:35;;;;;;;;;;;;;;;23.87;62.18;98163.94;5095640;28;19958;-46
2023/07/15 04:18:01;;;;;;;;;;;;;;;23.91;61.92;98156.09;5094399;28;19938;-46
2023/07/15 04:20:26;;;;;;;;;;;;;;;23.96;61.68;98161.34;5094250;28;19970;-46
2023/07/15 04:23:07;;;;;;;;;;;;;;;24.04;61.28;98174.03;5095533;28;19912;-46
2023/07/15 04:25:33;;;;;;;;;;;;;;;24.04;61.45;98159.84;5095885;28;19940;-46
2023/07/15 04:27:58;;;;;;;;;;;;;;;24.06;61.05;98163.78;5094443;28;19980;-46
2023/07/15 04:30:24;;;;;;;;;;;;;;;24.11;60.71;98165.59;5095234;28;19919;-46
2023/07/15 04:32:49;;;;;;;;;;;;;;;24.14;60.57;98159.59;5095385;28;19912;-46
2023/07/15 04:35:14;;;;;;;;;;;;;;;24.30;60.06;98157.38;5095004;28;19920;-45
2023/07/15 04:37:40;;;;;;;;;;;;;;;24.55;59.22;98153.34;5094221;28;19963;-45
2023/07/15 04:40:07;;;;;;;;;;;;;;;24.95;57.79;98153.44;5095221;28;19916;-46
2023/07/15 04:42:32;;;;;;;;;;;;;;;25.29;56.60;98166.25;5095370;28;20017;-46
2023/07/15 04:44:58;;;;;;;;;;;;;;;25.62;55.61;98139.00;5093914;28;20396;-46
2023/07/15 04:47:23;;;;;;;;;;;;;;;25.89;54.35;98146.00;5095056;28;19912;-46
2023/07/15 04:49:49;;;;;;;;;;;;;;;26.05;53.68;98129.44;5095010;28;19957;-46
2023/07/15 04:52:14;;;;;;;;;;;;;;;26.19;53.14;98137.38;5094980;28;20289;-46
2023/07/15 04:54:40;;;;;;;;;;;;;;;26.23;52.85;98149.88;5093960;28;20285;-46
2023/07/15 04:57:05;;;;;;;;;;;;;;;26.20;52.44;98150.50;5094870;28;20002;-46
2023/07/15 04:59:31;;;;;;;;;;;;;;;26.15;52.79;98128.34;5094890;28;20348;-46
2023/07/15 05:01:56;;;;;;;;;;;;;;;26.15;52.66;98126.44;5093461;28;19916;-46
2023/07/15 05:04:22;;;;;;;;;;;;;;;26.36;51.89;98126.63;5093476;28;20431;-46
2023/07/15 05:06:47;;;;;;;;;;;;;;;26.72;50.76;98121.97;5094694;28;20328;-46
2023/07/15 05:09:13;;;;;;;;;;;;;;;27.20;49.63;98118.94;5094668;28;19912;-46
2023/07/15 05:11:38;;;;;;;;;;;;;;;27.65;47.86;98112.25;5094262;28;20003;-46
2023/07/15 05:14:04;;;;;;;;;;;;;;;28.06;46.38;98106.09;5094682;28;19958;-46
2023/07/15 05:16:29;;;;;;;;;;;;;;;28.37;45.93;98134.59;5094542;28;19995;-46
2023/07/15 05:18:55;;;;;;;;;;;;;;;28.62;44.83;98121.19;5094571;28;20381;-46
2023/07/15 05:21:21;;;;;;;;;;;;;;;28.92;43.58;98115.66;5093414;28;20422;-46
2023/07/15 05:23:46;;;;;;;;;;;;;;;29.18;43.29;98109.97;5094441;28;20071;-46
2023/07/15 05:26:12;;;;;;;;;;;;;;;29.46;42.39;98127.06;5094360;28;20400;-46
2023/07/15 05:28:38;;;;;;;;;;;;;;;29.56;41.90;98108.78;5092946;28;20396;-46
2023/07/15 05:31:03;;;;;;;;;;;;;;;29.96;41.24;98108.88;5094155;28;19918;-46
2023/07/15 05:33:29;;;;;;;;;;;;;;;29.98;40.39;98116.63;5094444;28;20472;-46
2023/07/15 05:35:55;;;;;;;;;;;;;;;30.23;40.32;98126.25;5093880;28;20006;-46
2023/07/15 05:38:22;;;;;;;;;;;;;;;30.55;39.13;98120.94;5094303;28;19919;-46
2023/07/15 05:40:48;;;;;;;;;;;;;;;30.89;38.38;98123.34;5094000;28;19962;-46
2023/07/15 05:43:13;;;;;;;;;;;;;;;31.26;38.30;98121.94;5093051;28;19912;-46
2023/07/15 05:45:39;;;;;;;;;;;;;;;31.86;36.62;98110.13;5093954;28;19912;-46
2023/07/15 05:48:05;;;;;;;;;;;;;;;31.96;36.02;98116.94;5092953;28;19919;-46
2023/07/15 05:50:34;;;;;;;;;;;;;;;32.12;36.11;98109.53;5092427;28;19923;-46
2023/07/15 05:52:59;;;;;;;;;;;;;;;32.02;35.83;98115.53;5093803;28;19923;-46
2023/07/15 05:55:25;;;;;;;;;;;;;;;32.16;35.88;98121.25;5092433;28;19912;-46
2023/07/15 05:57:50;;;;;;;;;;;;;;;32.38;35.29;98129.81;5093748;28;19912;-46
2023/07/15 06:00:16;;;;;;;;;;;;;;;32.54;34.57;98122.34;5093702;28;19951;-46
2023/07/15 06:02:41;;;;;;;;;;;;;;;32.79;34.06;98135.63;5093685;28;19923;-46
2023/07/15 06:05:07;;;;;;;;;;;;;;;32.86;34.13;98113.22;5093580;28;19919;-46
2023/07/15 06:07:32;;;;;;;;;;;;;;;33.28;33.60;98106.91;5093598;28;20365;-46
2023/07/15 06:09:58;;;;;;;;;;;;;;;33.29;32.98;98112.00;5093461;28;19925;-46
2023/07/15 06:12:24;;;;;;;;;;;;;;;33.18;32.67;98102.88;5093425;28;19912;-46
2023/07/15 06:14:49;;;;;;;;;;;;;;;33.35;32.76;98109.75;5092472;28;19919;-46
2023/07/15 06:17:15;;;;;;;;;;;;;;;33.60;32.27;98113.59;5093381;28;19912;-46
2023/07/15 06:19:40;;;;;;;;;;;;;;;34.05;31.15;98118.47;5091994;28;20023;-47
2023/07/15 06:22:05;;;;;;;;;;;;;;;34.15;31.54;98106.97;5093291;28;19981;-46
2023/07/15 06:24:31;;;;;;;;;;;;;;;34.46;30.82;98122.09;5091235;28;20349;-47
2023/07/15 06:26:56;;;;;;;;;;;;;;;34.65;30.55;98126.59;5093201;28;20397;-46
2023/07/15 06:29:24;;;;;;;;;;;;;;;35.28;30.15;98124.03;5074973;28;19957;-46
2023/07/15 06:31:50;;;;;;;;;;;;;;;35.70;28.84;98125.47;5093372;28;19916;-47
2023/07/15 06:34:15;;;;;;;;;;;;;;;35.78;28.86;98121.66;5093004;28;19920;-47
2023/07/15 06:36:41;;;;;;;;;;;;;;;35.80;28.42;98120.09;5091538;28;19916;-47
2023/07/15 06:39:06;;;;;;;;;;;;;;;36.05;28.51;98118.63;5092956;28;19924;-47
2023/07/15 06:41:32;;;;;;;;;;;;;;;36.59;28.29;98123.09;5092866;28;19925;-47
2023/07/15 06:43:57;;;;;;;;;;;;;;;36.75;27.09;98127.44;5092918;28;19912;-46
2023/07/15 06:46:25;;;;;;;;;;;;;;;36.83;27.47;98120.81;5091606;28;19911;-47
2023/07/15 06:48:50;;;;;;;;;;;;;;;36.93;27.06;98116.53;5092846;28;20428;-46
2023/07/15 06:51:16;;;;;;;;;;;;;;;36.79;27.41;98133.69;5092688;28;19916;-46
2023/07/15 06:53:41;;;;;;;;;;;;;;;36.98;27.23;98136.03;5091395;28;20469;-47
2023/07/15 06:56:07;;;;;;;;;;;;;;;37.43;26.77;98140.34;5092679;28;19957;-46
2023/07/15 06:58:32;;;;;;;;;;;;;;;37.51;25.87;98125.47;5092972;28;19919;-47
2023/07/15 07:00:58;;;;;;;;;;;;;;;37.41;25.90;98146.22;5092656;28;19911;-47
2023/07/15 07:03:23;;;;;;;;;;;;;;;37.03;26.30;98143.09;5091313;28;19912;-46
2023/07/15 07:05:49;;;;;;;;;;;;;;;36.88;26.90;98155.19;5092536;28;20299;-46
2023/07/15 07:08:14;;;;;;;;;;;;;;;36.89;26.75;98149.34;5091268;28;19951;-46
2023/07/15 07:10:39;;;;;;;;;;;;;;;37.32;26.73;98148.56;5091411;28;19912;-46
2023/07/15 07:13:05;;;;;;;;;;;;;;;37.94;25.48;98171.94;5091183;28;19912;-47
2023/07/15 07:15:31;;;;;;;;;;;;;;;38.25;25.44;98167.53;5091148;28;19912;-46
2023/07/15 07:17:57;;;;;;;;;;;;;;;38.68;24.71;98170.09;5092450;28;19920;-47
2023/07/15 07:20:22;;;;;;;;;;;;;;;38.27;24.79;98156.94;5091054;28;20337;-47
2023/07/15 07:22:48;;;;;;;;;;;;;;;38.28;24.95;98169.50;5092688;28;19935;-46
2023/07/15 07:25:13;;;;;;;;;;;;;;;38.53;24.49;98174.09;5092298;28;19916;-47
2023/07/15 07:27:39;;;;;;;;;;;;;;;38.77;24.41;98177.84;5092403;28;19999;-47
2023/07/15 07:30:04;;;;;;;;;;;;;;;39.23;24.23;98184.22;5090904;28;19944;-47
2023/07/15 07:32:30;;;;;;;;;;;;;;;39.94;23.52;98189.06;5092239;28;19912;-46
2023/07/15 07:34:55;;;;;;;;;;;;;;;39.72;23.62;98191.25;5093262;28;19919;-47
2023/07/15 07:37:21;;;;;;;;;;;;;;;38.82;24.01;98179.38;5112188;28;19923;-47
2023/07/15 07:39:46;;;;;;;;;;;;;;;38.62;24.15;98177.19;5095449;28;19918;-46
2023/07/15 07:42:13;;;;;;;;;;;;;;;38.46;25.18;98187.81;5095058;28;19951;-47
2023/07/15 07:44:38;;;;;;;;;;;;;;;38.58;24.76;98189.34;5095345;28;20300;-47
2023/07/15 07:47:04;;;;;;;;;;;;;;;37.73;24.50;98184.53;5096312;28;19919;-47
2023/07/15 07:49:29;;;;;;;;;;;;;;;37.40;26.29;98185.72;5096185;28;20290;-47
2023/07/15 07:51:54;;;;;;;;;;;;;;;37.54;25.36;98191.16;5094884;28;20382;-47
2023/07/15 07:54:20;;;;;;;;;;;;;;;37.44;25.27;98194.72;5094811;28;19916;-47
2023/07/15 07:56:45;;;;;;;;;;;;;;;36.98;26.05;98189.97;5094744;28;19972;-47
2023/07/15 07:59:11;;;;;;;;;;;;;;;36.61;26.75;98190.28;5095030;28;19926;-47
2023/07/15 08:01:36;;;;;;;;;;;;;;;36.58;26.43;98195.34;5095016;28;19915;-46
2023/07/15 08:04:02;;;;;;;;;;;;;;;36.59;26.80;98182.47;5095895;28;19919;-46
2023/07/15 08:06:28;;;;;;;;;;;;;;;36.81;26.52;98196.22;5094884;28;20278;-46
2023/07/15 08:08:54;;;;;;;;;;;;;;;36.88;26.14;98185.28;5095928;28;20014;-47
2023/07/15 08:11:19;;;;;;;;;;;;;;;37.09;26.55;98171.63;5095728;28;20010;-47
2023/07/15 08:13:45;;;;;;;;;;;;;;;37.32;26.19;98173.22;5095820;28;20354;-47
2023/07/15 08:16:29;;;;;;;;;;;;;;;37.41;25.59;98172.81;5095728;28;19911;-47
2023/07/15 08:18:55;;;;;;;;;;;;;;;37.98;25.68;98172.72;5094450;28;19915;-47
2023/07/15 08:21:21;;;;;;;;;;;;;;;38.72;24.62;98170.06;5094343;28;20011;-47
2023/07/15 08:23:46;;;;;;;;;;;;;;;38.93;24.40;98183.63;5095597;28;20405;-47
2023/07/15 08:26:11;;;;;;;;;;;;;;;39.77;24.30;98181.78;5094210;28;19916;-47
2023/07/15 08:28:37;;;;;;;;;;;;;;;40.69;23.09;98170.03;5095517;28;19912;-47
2023/07/15 08:31:02;;;;;;;;;;;;;;;41.25;22.70;98177.88;5095377;28;19998;-47
2023/07/15 08:33:28;;;;;;;;;;;;;;;41.55;21.54;98171.44;5094424;28;19958;-47
2023/07/15 08:35:53;;;;;;;;;;;;;;;40.93;21.63;98170.88;5095226;28;19972;-47
2023/07/15 08:38:18;;;;;;;;;;;;;;;40.76;22.00;98172.72;5095317;28;19912;-47
2023/07/15 08:40:47;;;;;;;;;;;;;;;40.65;22.20;98178.38;5095271;28;19911;-47
2023/07/15 08:43:13;;;;;;;;;;;;;;;40.76;22.17;98166.44;5095190;28;19916;-47
2023/07/15 08:45:39;;;;;;;;;;;;;;;40.94;21.69;98183.47;5095132;28;19957;-47
2023/07/15 08:48:06;;;;;;;;;;;;;;;40.66;21.82;98182.66;5094415;28;20010;-47
2023/07/15 08:50:34;;;;;;;;;;;;;;;39.20;22.98;98183.06;5095030;28;20065;-46
2023/07/15 08:53:00;;;;;;;;;;;;;;;37.24;25.83;98180.63;5094039;28;20341;-47
2023/07/15 08:55:28;;;;;;;;;;;;;;;35.69;27.30;98182.03;5094947;28;19912;-46
2023/07/15 08:57:54;;;;;;;;;;;;;;;34.78;28.58;98190.59;5093668;28;20401;-46
2023/07/15 09:00:19;;;;;;;;;;;;;;;34.77;29.31;98191.75;5094975;28;20360;-47
2023/07/15 09:02:45;;;;;;;;;;;;;;;35.45;28.32;98188.84;5093607;28;20015;-47
2023/07/15 09:05:10;;;;;;;;;;;;;;;35.23;28.59;98184.41;5094818;28;19916;-47
2023/07/15 09:07:49;;;;;;;;;;;;;;;34.92;28.98;98170.09;5093614;28;19912;-47
2023/07/15 09:10:14;;;;;;;;;;;;;;;36.29;28.15;98161.69;5094673;28;19916;-47
2023/07/15 09:12:47;;;;;;;;;;;;;;;37.64;26.40;98164.22;5093407;28;19973;-47
2023/07/15 09:15:15;;;;;;;;;;;;;;;37.70;26.42;98174.34;5094573;28;19912;-47
2023/07/15 09:17:42;;;;;;;;;;;;;;;38.44;24.76;98169.03;5094603;28;19918;-47
2023/07/15 09:20:14;;;;;;;;;;;;;;;38.80;24.81;98165.28;5094571;28;19975;-46
2023/07/15 09:22:40;;;;;;;;;;;;;;;38.93;24.35;98180.09;5094529;28;20381;-47
2023/07/15 09:25:05;;;;;;;;;;;;;;;38.78;24.20;98181.38;5093069;28;19915;-47
2023/07/15 09:27:31;;;;;;;;;;;;;;;36.67;26.22;98186.03;5093139;28;20278;-47
2023/07/15 09:29:56;;;;;;;;;;;;;;;34.92;28.71;98192.69;5093001;28;19916;-46
2023/07/15 09:32:22;;;;;;;;;;;;;;;33.61;30.49;98210.47;5094297;28;19912;-47
2023/07/15 09:34:54;;;;;;;;;;;;;;;32.73;32.37;98208.50;5094032;28;19985;-47
2023/07/15 09:37:33;;;;;;;;;;;;;;;32.00;33.28;98189.19;5093281;28;19912;-46
2023/07/15 09:39:59;;;;;;;;;;;;;;;31.72;34.12;98185.81;5093064;28;19918;-46
2023/07/15 09:42:27;;;;;;;;;;;;;;;31.62;34.43;98182.47;5094373;28;19920;-46
2023/07/15 09:44:52;;;;;;;;;;;;;;;31.61;34.46;98180.94;5094071;28;19912;-46
2023/07/15 09:47:18;;;;;;;;;;;;;;;31.65;34.47;98183.69;5092950;28;19962;-46
2023/07/15 09:49:43;;;;;;;;;;;;;;;31.79;34.66;98167.75;5092573;28;19916;-46
2023/07/15 09:52:10;;;;;;;;;;;;;;;32.14;34.69;98168.91;5092598;28;19916;-46
2023/07/15 09:54:36;;;;;;;;;;;;;;;33.29;33.69;98162.91;5094153;28;19912;-46
2023/07/15 09:57:09;;;;;;;;;;;;;;;34.90;30.70;98156.03;5093735;28;20385;-47
2023/07/15 09:59:40;;;;;;;;;;;;;;;34.88;30.74;98153.69;5091479;28;19916;-44
2023/07/15 10:02:16;;;;;;;;;;;;;;;35.08;29.89;98167.88;5093749;28;19912;-44
2023/07/15 10:04:46;;;;;;;;;;;;;;;34.58;30.92;98164.66;5093798;28;19962;-44
2023/07/15 10:07:11;;;;;;;;;;;;;;;34.29;31.81;98161.63;5093647;28;19918;-44
2023/07/15 10:09:37;;;;;;;;;;;;;;;34.36;31.56;98169.84;5093494;28;20006;-44
2023/07/15 10:12:04;;;;;;;;;;;;;;;35.46;29.78;98165.09;5093412;28;19916;-44
2023/07/15 10:14:31;;;;;;;;;;;;;;;36.17;28.58;98164.75;5093528;28;19918;-44
2023/07/15 10:17:14;;;;;;;;;;;;;;;36.93;27.92;98152.09;5093451;28;19916;-44
2023/07/15 10:19:40;;;;;;;;;;;;;;;37.57;26.66;98135.63;5093410;28;19916;-47
2023/07/15 10:22:06;;;;;;;;;;;;;;;37.46;26.81;98143.06;5092070;28;20301;-47
2023/07/15 10:24:33;;;;;;;;;;;;;;;38.25;26.25;98131.13;5093276;28;20409;-47
2023/07/15 10:27:00;;;;;;;;;;;;;;;39.27;25.96;98143.78;5093482;28;19938;-47
2023/07/15 10:29:26;;;;;;;;;;;;;;;40.27;24.35;98131.72;5093276;28;19912;-47
2023/07/15 10:32:07;;;;;;;;;;;;;;;40.41;22.85;98113.47;5093368;28;19916;-47
2023/07/15 10:34:52;;;;;;;;;;;;;;;39.89;23.49;98123.56;5093145;28;19920;-47
2023/07/15 10:37:18;;;;;;;;;;;;;;;39.57;23.78;98143.13;5093043;28;19973;-47
2023/07/15 10:39:45;;;;;;;;;;;;;;;39.36;23.77;98124.84;5091742;28;19919;-47
2023/07/15 10:42:12;;;;;;;;;;;;;;;39.24;23.51;98123.44;5091625;28;20385;-47
2023/07/15 10:44:41;;;;;;;;;;;;;;;38.83;24.06;98137.06;5093486;28;19916;-47
2023/07/15 10:47:10;;;;;;;;;;;;;;;38.66;25.01;98145.03;5093173;28;19951;-47
2023/07/15 10:49:35;;;;;;;;;;;;;;;38.78;24.51;98137.47;5092748;28;19915;-47
2023/07/15 10:52:02;;;;;;;;;;;;;;;39.20;24.50;98127.38;5091414;28;19916;-47
2023/07/15 10:54:29;;;;;;;;;;;;;;;39.99;24.33;98126.59;5092822;28;19919;-47
2023/07/15 10:56:55;;;;;;;;;;;;;;;40.50;23.15;98119.25;5074556;28;19955;-47
2023/07/15 10:59:21;;;;;;;;;;;;;;;40.44;23.04;98118.16;5091451;28;20442;-47
2023/07/15 11:01:46;;;;;;;;;;;;;;;40.27;23.00;98108.94;5092704;28;20434;-47
2023/07/15 11:04:13;;;;;;;;;;;;;;;40.23;22.74;98103.50;5092648;28;20268;-47
2023/07/15 11:06:38;;;;;;;;;;;;;;;40.43;23.10;98106.38;5091321;28;19911;-47
2023/07/15 11:09:20;;;;;;;;;;;;;;;40.62;22.36;98102.16;5091176;28;20350;-47
2023/07/15 11:11:46;;;;;;;;;;;;;;;40.46;22.77;98110.25;5074347;28;19954;-47
2023/07/15 11:14:26;;;;;;;;;;;;;;;40.57;22.24;98110.91;5092758;28;19947;-48
2023/07/15 11:16:55;;;;;;;;;;;;;;;40.16;22.63;98089.84;5092773;28;20049;-48
2023/07/15 11:19:21;;;;;;;;;;;;;;;39.39;23.54;98115.81;5092397;28;19912;-47
2023/07/15 11:21:47;;;;;;;;;;;;;;;39.33;23.71;98104.50;5091195;28;20313;-47
2023/07/15 11:24:13;;;;;;;;;;;;;;;39.50;23.67;98102.00;5092409;28;19916;-47
2023/07/15 11:26:42;;;;;;;;;;;;;;;39.56;23.78;98083.88;5092362;28;19912;-47
2023/07/15 11:29:18;;;;;;;;;;;;;;;39.54;23.64;98092.53;5091039;28;19950;-47
2023/07/15 11:31:45;;;;;;;;;;;;;;;40.10;23.41;98077.75;5092295;28;20293;-47
2023/07/15 11:34:10;;;;;;;;;;;;;;;40.49;23.03;98088.22;5092264;28;19912;-47
2023/07/15 11:36:37;;;;;;;;;;;;;;;40.06;22.46;98088.00;5090796;28;19923;-47
2023/07/15 11:39:04;;;;;;;;;;;;;;;38.95;24.05;98109.13;5092197;28;19913;-47
2023/07/15 11:41:31;;;;;;;;;;;;;;;38.76;24.30;98086.56;5092182;28;20297;-47
2023/07/15 11:43:57;;;;;;;;;;;;;;;38.65;24.85;98088.59;5092157;28;19916;-47
2023/07/15 11:46:22;;;;;;;;;;;;;;;38.53;24.39;98078.88;5090849;28;19935;-47
2023/07/15 11:48:48;;;;;;;;;;;;;;;38.47;24.43;98072.25;5090840;28;19911;-47
2023/07/15 11:51:13;;;;;;;;;;;;;;;38.23;25.02;98079.44;5092023;28;19919;-47
2023/07/15 11:53:41;;;;;;;;;;;;;;;38.30;25.28;98051.22;5092120;28;20398;-47
2023/07/15 11:56:07;;;;;;;;;;;;;;;38.65;24.85;98077.63;5092334;28;19922;-47
2023/07/15 11:58:43;;;;;;;;;;;;;;;38.28;24.71;98002.28;5073892;28;20308;-47
2023/07/15 12:01:12;;;;;;;;;;;;;;;37.94;25.33;98070.59;5091941;28;19919;-47
2023/07/15 12:03:40;;;;;;;;;;;;;;;38.12;25.24;98073.25;5090729;28;20003;-47
2023/07/15 12:06:12;;;;;;;;;;;;;;;37.90;25.09;98062.38;5091967;28;19915;-47
2023/07/15 12:08:37;;;;;;;;;;;;;;;37.59;25.51;98080.50;5092002;28;19916;-47
2023/07/15 12:11:03;;;;;;;;;;;;;;;37.26;25.59;98068.03;5091866;28;19965;-47
2023/07/15 12:13:28;;;;;;;;;;;;;;;37.03;26.55;98068.41;5091845;28;19922;-47
2023/07/15 12:15:53;;;;;;;;;;;;;;;36.87;26.63;98060.66;5091896;28;19916;-47
2023/07/15 12:18:19;;;;;;;;;;;;;;;36.71;26.64;98067.28;5090579;28;19919;-47
2023/07/15 12:20:44;;;;;;;;;;;;;;;36.83;27.41;98084.47;5092089;28;19943;-47
2023/07/15 12:23:10;;;;;;;;;;;;;;;37.12;26.28;98093.47;5095096;28;19915;-47
2023/07/15 12:25:35;;;;;;;;;;;;;;;36.76;26.99;98079.78;5095866;28;20445;-47
2023/07/15 12:28:01;;;;;;;;;;;;;;;36.69;26.80;98085.25;5095580;28;20424;-47
2023/07/15 12:30:26;;;;;;;;;;;;;;;36.54;27.04;98063.34;5094133;28;19916;-47
2023/07/15 12:32:52;;;;;;;;;;;;;;;36.33;27.01;98064.09;5095425;28;19961;-47
2023/07/15 12:35:17;;;;;;;;;;;;;;;36.27;27.43;98059.41;5095143;28;19924;-47
2023/07/15 12:37:42;;;;;;;;;;;;;;;36.53;27.40;98053.56;5095421;28;19919;-47
2023/07/15 12:40:08;;;;;;;;;;;;;;;36.97;26.70;98048.91;5095351;28;19919;-47
2023/07/15 12:42:35;;;;;;;;;;;;;;;36.95;26.34;98060.25;5095583;28;20429;-47